sensor_id;sensor_type;location;lat;lon;timestamp;pressure;altitude;pressure_sealevel;temperature;humidity
59493;BME280;45497;43.996;22.876;2023-04-19T00:00:47;64080.75;;;-145.45;100.00
59493;BME280;45497;43.996;22.876;2023-04-19T00:03:13;64080.75;;;-145.45;100.00
59493;BME280;45497;43.996;22.876;2023-04-19T00:05:41;64080.75;;;-145.45;100.00
59493;BME280;45497;43.996;22.876;2023-04-19T00:08:06;64080.75;;;-145.45;100.00
59493;BME280;45497;43.996;22.876;2023-04-19T00:10:32;64080.75;;;-145.45;100.00
59493;BME280;45497;43.996;22.876;2023-04-19T00:13:00;64080.75;;;-145.45;100.00
59493;BME280;45497;43.996;22.876;2023-04-19T00:15:25;64080.75;;;-145.45;100.00
59493;BME280;45497;43.996;22.876;2023-04-19T00:17:51;64080.75;;;-145.45;100.00
59493;BME280;45497;43.996;22.876;2023-04-19T00:20:16;64080.75;;;-145.45;100.00
59493;BME280;45497;43.996;22.876;2023-04-19T00:22:42;64080.75;;;-145.45;100.00
59493;BME280;45497;43.996;22.876;2023-04-19T00:25:07;64080.75;;;-145.45;100.00
59493;BME280;45497;43.996;22.876;2023-04-19T00:27:33;64080.75;;;-145.45;100.00
59493;BME280;45497;43.996;22.876;2023-04-19T00:29:58;64080.75;;;-145.45;100.00
59493;BME280;45497;43.996;22.876;2023-04-19T00:32:24;64080.75;;;-145.45;100.00
59493;BME280;45497;43.996;22.876;2023-04-19T00:34:49;64080.75;;;-145.45;100.00
59493;BME280;45497;43.996;22.876;2023-04-19T00:37:15;64080.75;;;-145.45;100.00
59493;BME280;45497;43.996;22.876;2023-04-19T00:39:41;64080.75;;;-145.45;100.00
59493;BME280;45497;43.996;22.876;2023-04-19T00:42:06;64080.75;;;-145.45;100.00
59493;BME280;45497;43.996;22.876;2023-04-19T00:44:32;64080.75;;;-145.45;100.00
59493;BME280;45497;43.996;22.876;2023-04-19T00:46:58;64080.75;;;-145.45;100.00
59493;BME280;45497;43.996;22.876;2023-04-19T00:49:24;64080.75;;;-145.45;100.00
59493;BME280;45497;43.996;22.876;2023-04-19T00:51:50;64080.75;;;-145.45;100.00
59493;BME280;45497;43.996;22.876;2023-04-19T00:54:16;64080.75;;;-145.45;100.00
59493;BME280;45497;43.996;22.876;2023-04-19T00:56:43;64080.75;;;-145.45;100.00
59493;BME280;45497;43.996;22.876;2023-04-19T00:59:10;64080.75;;;-145.45;100.00
59493;BME280;45497;43.996;22.876;2023-04-19T01:01:36;64080.75;;;-145.45;100.00
59493;BME280;45497;43.996;22.876;2023-04-19T01:04:03;64080.75;;;-145.45;100.00
59493;BME280;45497;43.996;22.876;2023-04-19T01:06:29;64080.75;;;-145.45;100.00
59493;BME280;45497;43.996;22.876;2023-04-19T01:08:55;64080.75;;;-145.45;100.00
59493;BME280;45497;43.996;22.876;2023-04-19T01:11:22;64080.75;;;-145.45;100.00
59493;BME280;45497;43.996;22.876;2023-04-19T01:13:48;64080.75;;;-145.45;100.00
59493;BME280;45497;43.996;22.876;2023-04-19T01:16:13;64080.75;;;-145.45;100.00
59493;BME280;45497;43.996;22.876;2023-04-19T01:18:39;64080.75;;;-145.45;100.00
59493;BME280;45497;43.996;22.876;2023-04-19T01:21:06;64080.75;;;-145.45;100.00
59493;BME280;45497;43.996;22.876;2023-04-19T01:23:32;64080.75;;;-145.45;100.00
59493;BME280;45497;43.996;22.876;2023-04-19T01:25:57;64080.75;;;-145.45;100.00
59493;BME280;45497;43.996;22.876;2023-04-19T01:28:23;64080.75;;;-145.45;100.00
59493;BME280;45497;43.996;22.876;2023-04-19T01:30:48;64080.75;;;-145.45;100.00
59493;BME280;45497;43.996;22.876;2023-04-19T01:33:15;64080.75;;;-145.45;100.00
59493;BME280;45497;43.996;22.876;2023-04-19T01:35:41;64080.75;;;-145.45;100.00
59493;BME280;45497;43.996;22.876;2023-04-19T01:38:06;64080.75;;;-145.45;100.00
59493;BME280;45497;43.996;22.876;2023-04-19T01:40:32;64080.75;;;-145.45;100.00
59493;BME280;45497;43.996;22.876;2023-04-19T01:42:57;64080.75;;;-145.45;100.00
59493;BME280;45497;43.996;22.876;2023-04-19T01:45:23;64080.75;;;-145.45;100.00
59493;BME280;45497;43.996;22.876;2023-04-19T01:47:48;64080.75;;;-145.45;100.00
59493;BME280;45497;43.996;22.876;2023-04-19T01:50:14;64080.75;;;-145.45;100.00
59493;BME280;45497;43.996;22.876;2023-04-19T01:52:39;64080.75;;;-145.45;100.00
59493;BME280;45497;43.996;22.876;2023-04-19T01:55:05;64080.75;;;-145.45;100.00
59493;BME280;45497;43.996;22.876;2023-04-19T01:57:30;64080.75;;;-145.45;100.00
59493;BME280;45497;43.996;22.876;2023-04-19T01:59:56;64080.75;;;-145.45;100.00
59493;BME280;45497;43.996;22.876;2023-04-19T02:02:21;64080.75;;;-145.45;100.00
59493;BME280;45497;43.996;22.876;2023-04-19T02:04:47;64080.75;;;-145.45;100.00
59493;BME280;45497;43.996;22.876;2023-04-19T02:07:12;64080.75;;;-145.45;100.00
59493;BME280;45497;43.996;22.876;2023-04-19T02:09:38;64080.75;;;-145.45;100.00
59493;BME280;45497;43.996;22.876;2023-04-19T02:12:04;64080.75;;;-145.45;100.00
59493;BME280;45497;43.996;22.876;2023-04-19T02:14:30;64080.75;;;-145.45;100.00
59493;BME280;45497;43.996;22.876;2023-04-19T02:16:56;64080.75;;;-145.45;100.00
59493;BME280;45497;43.996;22.876;2023-04-19T02:19:22;64080.75;;;-145.45;100.00
59493;BME280;45497;43.996;22.876;2023-04-19T02:21:47;64080.75;;;-145.45;100.00
59493;BME280;45497;43.996;22.876;2023-04-19T02:24:13;64080.75;;;-145.45;100.00
59493;BME280;45497;43.996;22.876;2023-04-19T02:26:39;64080.75;;;-145.45;100.00
59493;BME280;45497;43.996;22.876;2023-04-19T02:29:05;64080.75;;;-145.45;100.00
59493;BME280;45497;43.996;22.876;2023-04-19T02:31:31;64080.75;;;-145.45;100.00
59493;BME280;45497;43.996;22.876;2023-04-19T02:33:56;64080.75;;;-145.45;100.00
59493;BME280;45497;43.996;22.876;2023-04-19T02:36:22;64080.75;;;-145.45;100.00
59493;BME280;45497;43.996;22.876;2023-04-19T02:38:47;64080.75;;;-145.45;100.00
59493;BME280;45497;43.996;22.876;2023-04-19T02:41:13;64080.75;;;-145.45;100.00
59493;BME280;45497;43.996;22.876;2023-04-19T02:43:38;64080.75;;;-145.45;100.00
59493;BME280;45497;43.996;22.876;2023-04-19T02:46:04;64080.75;;;-145.45;100.00
59493;BME280;45497;43.996;22.876;2023-04-19T02:48:29;64080.75;;;-145.45;100.00
59493;BME280;45497;43.996;22.876;2023-04-19T02:50:55;64080.75;;;-145.45;100.00
59493;BME280;45497;43.996;22.876;2023-04-19T02:53:20;64080.75;;;-145.45;100.00
59493;BME280;45497;43.996;22.876;2023-04-19T02:55:46;64080.75;;;-145.45;100.00
59493;BME280;45497;43.996;22.876;2023-04-19T02:58:11;64080.75;;;-145.45;100.00
59493;BME280;45497;43.996;22.876;2023-04-19T03:00:37;64080.75;;;-145.45;100.00
59493;BME280;45497;43.996;22.876;2023-04-19T03:03:03;64080.75;;;-145.45;100.00
59493;BME280;45497;43.996;22.876;2023-04-19T03:05:29;64080.75;;;-145.45;100.00
59493;BME280;45497;43.996;22.876;2023-04-19T03:07:54;64080.75;;;-145.45;100.00
59493;BME280;45497;43.996;22.876;2023-04-19T03:10:20;64080.75;;;-145.45;100.00
59493;BME280;45497;43.996;22.876;2023-04-19T03:12:45;64080.75;;;-145.45;100.00
59493;BME280;45497;43.996;22.876;2023-04-19T03:15:11;64080.75;;;-145.45;100.00
59493;BME280;45497;43.996;22.876;2023-04-19T03:17:36;64080.75;;;-145.45;100.00
59493;BME280;45497;43.996;22.876;2023-04-19T03:20:02;64080.75;;;-145.45;100.00
59493;BME280;45497;43.996;22.876;2023-04-19T03:22:34;64080.75;;;-145.45;100.00
59493;BME280;45497;43.996;22.876;2023-04-19T03:24:59;64080.75;;;-145.45;100.00
59493;BME280;45497;43.996;22.876;2023-04-19T03:27:25;64080.75;;;-145.45;100.00
59493;BME280;45497;43.996;22.876;2023-04-19T03:29:50;64080.75;;;-145.45;100.00
59493;BME280;45497;43.996;22.876;2023-04-19T03:32:16;64080.75;;;-145.45;100.00
59493;BME280;45497;43.996;22.876;2023-04-19T03:34:42;64080.75;;;-145.45;100.00
59493;BME280;45497;43.996;22.876;2023-04-19T03:37:07;64080.75;;;-145.45;100.00
59493;BME280;45497;43.996;22.876;2023-04-19T03:39:33;64080.75;;;-145.45;100.00
59493;BME280;45497;43.996;22.876;2023-04-19T03:41:58;64080.75;;;-145.45;100.00
59493;BME280;45497;43.996;22.876;2023-04-19T03:44:24;64080.75;;;-145.45;100.00
59493;BME280;45497;43.996;22.876;2023-04-19T03:46:49;64080.75;;;-145.45;100.00
59493;BME280;45497;43.996;22.876;2023-04-19T03:49:14;64080.75;;;-145.45;100.00
59493;BME280;45497;43.996;22.876;2023-04-19T03:51:40;64080.75;;;-145.45;100.00
59493;BME280;45497;43.996;22.876;2023-04-19T03:54:05;64080.75;;;-145.45;100.00
59493;BME280;45497;43.996;22.876;2023-04-19T03:56:31;64080.75;;;-145.45;100.00
59493;BME280;45497;43.996;22.876;2023-04-19T03:58:56;64080.75;;;-145.45;100.00
59493;BME280;45497;43.996;22.876;2023-04-19T04:01:22;64080.75;;;-145.45;100.00
59493;BME280;45497;43.996;22.876;2023-04-19T04:03:48;64080.75;;;-145.45;100.00
59493;BME280;45497;43.996;22.876;2023-04-19T04:06:14;64080.75;;;-145.45;100.00
59493;BME280;45497;43.996;22.876;2023-04-19T04:08:40;64080.75;;;-145.45;100.00
59493;BME280;45497;43.996;22.876;2023-04-19T04:11:05;64080.75;;;-145.45;100.00
59493;BME280;45497;43.996;22.876;2023-04-19T04:13:31;64080.75;;;-145.45;100.00
59493;BME280;45497;43.996;22.876;2023-04-19T04:15:56;64080.75;;;-145.45;100.00
59493;BME280;45497;43.996;22.876;2023-04-19T04:18:22;64080.75;;;-145.45;100.00
59493;BME280;45497;43.996;22.876;2023-04-19T04:20:48;64080.75;;;-145.45;100.00
59493;BME280;45497;43.996;22.876;2023-04-19T04:23:13;64080.75;;;-145.45;100.00
59493;BME280;45497;43.996;22.876;2023-04-19T04:25:39;64080.75;;;-145.45;100.00
59493;BME280;45497;43.996;22.876;2023-04-19T04:28:05;64080.75;;;-145.45;100.00
59493;BME280;45497;43.996;22.876;2023-04-19T04:30:32;64080.75;;;-145.45;100.00
59493;BME280;45497;43.996;22.876;2023-04-19T04:32:58;64080.75;;;-145.45;100.00
59493;BME280;45497;43.996;22.876;2023-04-19T04:35:24;64080.75;;;-145.45;100.00
59493;BME280;45497;43.996;22.876;2023-04-19T04:37:50;64080.75;;;-145.45;100.00
59493;BME280;45497;43.996;22.876;2023-04-19T04:40:18;64080.75;;;-145.45;100.00
59493;BME280;45497;43.996;22.876;2023-04-19T04:42:45;64080.75;;;-145.45;100.00
59493;BME280;45497;43.996;22.876;2023-04-19T04:45:10;64080.75;;;-145.45;100.00
59493;BME280;45497;43.996;22.876;2023-04-19T04:47:37;64080.75;;;-145.45;100.00
59493;BME280;45497;43.996;22.876;2023-04-19T04:50:03;64080.75;;;-145.45;100.00
59493;BME280;45497;43.996;22.876;2023-04-19T04:52:28;64080.75;;;-145.45;100.00
59493;BME280;45497;43.996;22.876;2023-04-19T04:54:54;64080.75;;;-145.45;100.00
59493;BME280;45497;43.996;22.876;2023-04-19T04:57:19;64080.75;;;-145.45;100.00
59493;BME280;45497;43.996;22.876;2023-04-19T04:59:45;64080.75;;;-145.45;100.00
59493;BME280;45497;43.996;22.876;2023-04-19T05:02:13;64080.75;;;-145.45;100.00
59493;BME280;45497;43.996;22.876;2023-04-19T05:04:39;64080.75;;;-145.45;100.00
59493;BME280;45497;43.996;22.876;2023-04-19T05:07:04;64080.75;;;-145.45;100.00
59493;BME280;45497;43.996;22.876;2023-04-19T05:09:30;64080.75;;;-145.45;100.00
59493;BME280;45497;43.996;22.876;2023-04-19T05:11:56;64080.75;;;-145.45;100.00
59493;BME280;45497;43.996;22.876;2023-04-19T05:14:21;64080.75;;;-145.45;100.00
59493;BME280;45497;43.996;22.876;2023-04-19T05:16:47;64080.75;;;-145.45;100.00
59493;BME280;45497;43.996;22.876;2023-04-19T05:19:12;64080.75;;;-145.45;100.00
59493;BME280;45497;43.996;22.876;2023-04-19T05:21:37;64080.75;;;-145.45;100.00
59493;BME280;45497;43.996;22.876;2023-04-19T05:24:03;64080.75;;;-145.45;100.00
59493;BME280;45497;43.996;22.876;2023-04-19T05:26:29;64080.75;;;-145.45;100.00
59493;BME280;45497;43.996;22.876;2023-04-19T05:28:55;64080.75;;;-145.45;100.00
59493;BME280;45497;43.996;22.876;2023-04-19T05:31:21;64080.75;;;-145.45;100.00
59493;BME280;45497;43.996;22.876;2023-04-19T05:33:46;64080.75;;;-145.45;100.00
59493;BME280;45497;43.996;22.876;2023-04-19T05:36:12;64080.75;;;-145.45;100.00
59493;BME280;45497;43.996;22.876;2023-04-19T05:38:37;64080.75;;;-145.45;100.00
59493;BME280;45497;43.996;22.876;2023-04-19T05:41:03;64080.75;;;-145.45;100.00
59493;BME280;45497;43.996;22.876;2023-04-19T05:43:29;64080.75;;;-145.45;100.00
59493;BME280;45497;43.996;22.876;2023-04-19T05:45:55;64080.75;;;-145.45;100.00
59493;BME280;45497;43.996;22.876;2023-04-19T05:48:21;64080.75;;;-145.45;100.00
59493;BME280;45497;43.996;22.876;2023-04-19T05:50:46;64080.75;;;-145.45;100.00
59493;BME280;45497;43.996;22.876;2023-04-19T05:53:12;64080.75;;;-145.45;100.00
59493;BME280;45497;43.996;22.876;2023-04-19T05:55:37;64080.75;;;-145.45;100.00
59493;BME280;45497;43.996;22.876;2023-04-19T05:58:03;64080.75;;;-145.45;100.00
59493;BME280;45497;43.996;22.876;2023-04-19T06:00:28;64080.75;;;-145.45;100.00
59493;BME280;45497;43.996;22.876;2023-04-19T06:02:54;64080.75;;;-145.45;100.00
59493;BME280;45497;43.996;22.876;2023-04-19T06:05:19;64080.75;;;-145.45;100.00
59493;BME280;45497;43.996;22.876;2023-04-19T06:07:45;64080.75;;;-145.45;100.00
59493;BME280;45497;43.996;22.876;2023-04-19T06:10:10;64080.75;;;-145.45;100.00
59493;BME280;45497;43.996;22.876;2023-04-19T06:12:36;64080.75;;;-145.45;100.00
59493;BME280;45497;43.996;22.876;2023-04-19T06:15:02;64080.75;;;-145.45;100.00
59493;BME280;45497;43.996;22.876;2023-04-19T06:17:28;64080.75;;;-145.45;100.00
59493;BME280;45497;43.996;22.876;2023-04-19T06:19:54;64080.75;;;-145.45;100.00
59493;BME280;45497;43.996;22.876;2023-04-19T06:22:20;64080.75;;;-145.45;100.00
59493;BME280;45497;43.996;22.876;2023-04-19T06:24:48;64080.75;;;-145.45;100.00
59493;BME280;45497;43.996;22.876;2023-04-19T06:27:15;64080.75;;;-145.45;100.00
59493;BME280;45497;43.996;22.876;2023-04-19T06:29:41;64080.75;;;-145.45;100.00
59493;BME280;45497;43.996;22.876;2023-04-19T06:32:08;64080.75;;;-145.45;100.00
59493;BME280;45497;43.996;22.876;2023-04-19T06:34:35;64080.75;;;-145.45;100.00
59493;BME280;45497;43.996;22.876;2023-04-19T06:37:01;64080.75;;;-145.45;100.00
59493;BME280;45497;43.996;22.876;2023-04-19T06:39:26;64080.75;;;-145.45;100.00
59493;BME280;45497;43.996;22.876;2023-04-19T06:41:52;64080.75;;;-145.45;100.00
59493;BME280;45497;43.996;22.876;2023-04-19T06:44:18;64080.75;;;-145.45;100.00
59493;BME280;45497;43.996;22.876;2023-04-19T06:46:43;64080.75;;;-145.45;100.00
59493;BME280;45497;43.996;22.876;2023-04-19T06:49:09;64080.75;;;-145.45;100.00
59493;BME280;45497;43.996;22.876;2023-04-19T06:51:34;64080.75;;;-145.45;100.00
59493;BME280;45497;43.996;22.876;2023-04-19T06:54:00;64080.75;;;-145.45;100.00
59493;BME280;45497;43.996;22.876;2023-04-19T06:56:45;64080.75;;;-145.45;100.00
59493;BME280;45497;43.996;22.876;2023-04-19T06:59:19;64080.75;;;-145.45;100.00
59493;BME280;45497;43.996;22.876;2023-04-19T07:01:45;64080.75;;;-145.45;100.00
59493;BME280;45497;43.996;22.876;2023-04-19T07:04:11;64080.75;;;-145.45;100.00
59493;BME280;45497;43.996;22.876;2023-04-19T07:06:38;64080.75;;;-145.45;100.00
59493;BME280;45497;43.996;22.876;2023-04-19T07:09:05;64080.75;;;-145.45;100.00
59493;BME280;45497;43.996;22.876;2023-04-19T07:11:32;64080.75;;;-145.45;100.00
59493;BME280;45497;43.996;22.876;2023-04-19T07:13:58;64080.75;;;-145.45;100.00
59493;BME280;45497;43.996;22.876;2023-04-19T07:16:25;64080.75;;;-145.45;100.00
59493;BME280;45497;43.996;22.876;2023-04-19T07:18:51;64080.75;;;-145.45;100.00
59493;BME280;45497;43.996;22.876;2023-04-19T07:21:16;64080.75;;;-145.45;100.00
59493;BME280;45497;43.996;22.876;2023-04-19T07:23:42;64080.75;;;-145.45;100.00
59493;BME280;45497;43.996;22.876;2023-04-19T07:26:07;64080.75;;;-145.45;100.00
59493;BME280;45497;43.996;22.876;2023-04-19T07:28:33;64080.75;;;-145.45;100.00
59493;BME280;45497;43.996;22.876;2023-04-19T07:30:58;64080.75;;;-145.45;100.00
59493;BME280;45497;43.996;22.876;2023-04-19T07:33:25;64080.75;;;-145.45;100.00
59493;BME280;45497;43.996;22.876;2023-04-19T07:35:51;64080.75;;;-145.45;100.00
59493;BME280;45497;43.996;22.876;2023-04-19T07:38:16;64080.75;;;-145.45;100.00
59493;BME280;45497;43.996;22.876;2023-04-19T07:40:43;64080.75;;;-145.45;100.00
59493;BME280;45497;43.996;22.876;2023-04-19T07:43:08;64080.75;;;-145.45;100.00
59493;BME280;45497;43.996;22.876;2023-04-19T07:45:34;64080.75;;;-145.45;100.00
59493;BME280;45497;43.996;22.876;2023-04-19T07:48:00;64080.75;;;-145.45;100.00
59493;BME280;45497;43.996;22.876;2023-04-19T07:50:25;64080.75;;;-145.45;100.00
59493;BME280;45497;43.996;22.876;2023-04-19T07:52:51;64080.75;;;-145.45;100.00
59493;BME280;45497;43.996;22.876;2023-04-19T07:55:17;64080.75;;;-145.45;100.00
59493;BME280;45497;43.996;22.876;2023-04-19T07:57:42;64080.75;;;-145.45;100.00
59493;BME280;45497;43.996;22.876;2023-04-19T08:00:13;64080.75;;;-145.45;100.00
59493;BME280;45497;43.996;22.876;2023-04-19T08:02:45;64080.75;;;-145.45;100.00
59493;BME280;45497;43.996;22.876;2023-04-19T08:05:15;64080.75;;;-145.45;100.00
59493;BME280;45497;43.996;22.876;2023-04-19T08:07:44;64080.75;;;-145.45;100.00
59493;BME280;45497;43.996;22.876;2023-04-19T08:10:10;64080.75;;;-145.45;100.00
59493;BME280;45497;43.996;22.876;2023-04-19T08:12:36;64080.75;;;-145.45;100.00
59493;BME280;45497;43.996;22.876;2023-04-19T08:15:04;64080.75;;;-145.45;100.00
59493;BME280;45497;43.996;22.876;2023-04-19T08:17:31;64080.75;;;-145.45;100.00
59493;BME280;45497;43.996;22.876;2023-04-19T08:19:56;64080.75;;;-145.45;100.00
59493;BME280;45497;43.996;22.876;2023-04-19T08:22:24;64080.75;;;-145.45;100.00
59493;BME280;45497;43.996;22.876;2023-04-19T08:24:51;64080.75;;;-145.45;100.00
59493;BME280;45497;43.996;22.876;2023-04-19T08:27:17;64080.75;;;-145.45;100.00
59493;BME280;45497;43.996;22.876;2023-04-19T08:29:43;64080.75;;;-145.45;100.00
59493;BME280;45497;43.996;22.876;2023-04-19T08:32:10;64080.75;;;-145.45;100.00
59493;BME280;45497;43.996;22.876;2023-04-19T08:34:37;64080.75;;;-145.45;100.00
59493;BME280;45497;43.996;22.876;2023-04-19T08:37:04;64080.75;;;-145.45;100.00
59493;BME280;45497;43.996;22.876;2023-04-19T08:39:32;64080.75;;;-145.45;100.00
59493;BME280;45497;43.996;22.876;2023-04-19T08:42:03;64080.75;;;-145.45;100.00
59493;BME280;45497;43.996;22.876;2023-04-19T08:44:30;64080.75;;;-145.45;100.00
59493;BME280;45497;43.996;22.876;2023-04-19T08:46:58;64080.75;;;-145.45;100.00
59493;BME280;45497;43.996;22.876;2023-04-19T08:49:25;64080.75;;;-145.45;100.00
59493;BME280;45497;43.996;22.876;2023-04-19T08:51:52;64080.75;;;-145.45;100.00
59493;BME280;45497;43.996;22.876;2023-04-19T08:54:18;64080.75;;;-145.45;100.00
59493;BME280;45497;43.996;22.876;2023-04-19T08:56:46;64080.75;;;-145.45;100.00
59493;BME280;45497;43.996;22.876;2023-04-19T08:59:11;64080.75;;;-145.45;100.00
59493;BME280;45497;43.996;22.876;2023-04-19T09:01:38;64080.75;;;-145.45;100.00
59493;BME280;45497;43.996;22.876;2023-04-19T09:04:04;64080.75;;;-145.45;100.00
59493;BME280;45497;43.996;22.876;2023-04-19T09:06:37;64080.75;;;-145.45;100.00
59493;BME280;45497;43.996;22.876;2023-04-19T09:09:14;64080.75;;;-145.45;100.00
59493;BME280;45497;43.996;22.876;2023-04-19T09:11:43;64080.75;;;-145.45;100.00
59493;BME280;45497;43.996;22.876;2023-04-19T09:14:10;64080.75;;;-145.45;100.00
59493;BME280;45497;43.996;22.876;2023-04-19T09:16:36;64080.75;;;-145.45;100.00
59493;BME280;45497;43.996;22.876;2023-04-19T09:19:02;64080.75;;;-145.45;100.00
59493;BME280;45497;43.996;22.876;2023-04-19T09:21:30;64080.75;;;-145.45;100.00
59493;BME280;45497;43.996;22.876;2023-04-19T09:23:56;64080.75;;;-145.45;100.00
59493;BME280;45497;43.996;22.876;2023-04-19T09:26:22;64080.75;;;-145.45;100.00
59493;BME280;45497;43.996;22.876;2023-04-19T09:29:03;64080.75;;;-145.45;100.00
59493;BME280;45497;43.996;22.876;2023-04-19T09:31:35;64080.75;;;-145.45;100.00
59493;BME280;45497;43.996;22.876;2023-04-19T09:34:14;64080.75;;;-145.45;100.00
59493;BME280;45497;43.996;22.876;2023-04-19T09:36:41;64080.75;;;-145.45;100.00
59493;BME280;45497;43.996;22.876;2023-04-19T09:39:07;64080.75;;;-145.45;100.00
59493;BME280;45497;43.996;22.876;2023-04-19T09:41:33;64080.75;;;-145.45;100.00
59493;BME280;45497;43.996;22.876;2023-04-19T09:44:09;64080.75;;;-145.45;100.00
59493;BME280;45497;43.996;22.876;2023-04-19T09:46:36;64080.75;;;-145.45;100.00
59493;BME280;45497;43.996;22.876;2023-04-19T09:51:45;64080.75;;;-145.45;100.00
59493;BME280;45497;43.996;22.876;2023-04-19T09:54:13;64080.75;;;-145.45;100.00
59493;BME280;45497;43.996;22.876;2023-04-19T09:56:39;64080.75;;;-145.45;100.00
59493;BME280;45497;43.996;22.876;2023-04-19T09:59:06;64080.75;;;-145.45;100.00
59493;BME280;45497;43.996;22.876;2023-04-19T10:01:44;64080.75;;;-145.45;100.00
59493;BME280;45497;43.996;22.876;2023-04-19T10:04:11;64080.75;;;-145.45;100.00
59493;BME280;45497;43.996;22.876;2023-04-19T10:06:39;64080.75;;;-145.45;100.00
59493;BME280;45497;43.996;22.876;2023-04-19T10:09:06;64080.75;;;-145.45;100.00
59493;BME280;45497;43.996;22.876;2023-04-19T10:11:36;64080.75;;;-145.45;100.00
59493;BME280;45497;43.996;22.876;2023-04-19T10:14:06;64080.75;;;-145.45;100.00
59493;BME280;45497;43.996;22.876;2023-04-19T10:16:34;64080.75;;;-145.45;100.00
59493;BME280;45497;43.996;22.876;2023-04-19T10:19:21;64080.75;;;-145.45;100.00
59493;BME280;45497;43.996;22.876;2023-04-19T10:21:49;64080.75;;;-145.45;100.00
59493;BME280;45497;43.996;22.876;2023-04-19T10:24:16;64080.75;;;-145.45;100.00
59493;BME280;45497;43.996;22.876;2023-04-19T10:30:06;64080.75;;;-145.45;100.00
59493;BME280;45497;43.996;22.876;2023-04-19T10:32:42;64080.75;;;-145.45;100.00
59493;BME280;45497;43.996;22.876;2023-04-19T10:35:18;64080.75;;;-145.45;100.00
59493;BME280;45497;43.996;22.876;2023-04-19T10:38:04;64080.75;;;-145.45;100.00
59493;BME280;45497;43.996;22.876;2023-04-19T10:43:15;64080.75;;;-145.45;100.00
59493;BME280;45497;43.996;22.876;2023-04-19T10:45:42;64080.75;;;-145.45;100.00
59493;BME280;45497;43.996;22.876;2023-04-19T10:51:01;64080.75;;;-145.45;100.00
59493;BME280;45497;43.996;22.876;2023-04-19T10:53:44;64080.75;;;-145.45;100.00
59493;BME280;45497;43.996;22.876;2023-04-19T10:56:10;64080.75;;;-145.45;100.00
59493;BME280;45497;43.996;22.876;2023-04-19T11:01:47;64080.75;;;-145.45;100.00
59493;BME280;45497;43.996;22.876;2023-04-19T11:07:09;64080.75;;;-145.45;100.00
59493;BME280;45497;43.996;22.876;2023-04-19T11:12:10;64080.75;;;-145.45;100.00
59493;BME280;45497;43.996;22.876;2023-04-19T11:14:36;64080.75;;;-145.45;100.00
59493;BME280;45497;43.996;22.876;2023-04-19T11:17:20;64080.75;;;-145.45;100.00
59493;BME280;45497;43.996;22.876;2023-04-19T11:19:54;64080.75;;;-145.45;100.00
59493;BME280;45497;43.996;22.876;2023-04-19T11:22:41;64080.75;;;-145.45;100.00
59493;BME280;45497;43.996;22.876;2023-04-19T11:27:37;64080.75;;;-145.45;100.00
59493;BME280;45497;43.996;22.876;2023-04-19T11:32:36;64080.75;;;-145.45;100.00
59493;BME280;45497;43.996;22.876;2023-04-19T11:35:08;64080.75;;;-145.45;100.00
59493;BME280;45497;43.996;22.876;2023-04-19T11:37:35;64080.75;;;-145.45;100.00
59493;BME280;45497;43.996;22.876;2023-04-19T11:40:02;64080.75;;;-145.45;100.00
59493;BME280;45497;43.996;22.876;2023-04-19T11:42:32;64080.75;;;-145.45;100.00
59493;BME280;45497;43.996;22.876;2023-04-19T11:44:58;64080.75;;;-145.45;100.00
59493;BME280;45497;43.996;22.876;2023-04-19T11:47:25;64080.75;;;-145.45;100.00
59493;BME280;45497;43.996;22.876;2023-04-19T11:49:51;64080.75;;;-145.45;100.00
59493;BME280;45497;43.996;22.876;2023-04-19T11:52:22;64080.75;;;-145.45;100.00
59493;BME280;45497;43.996;22.876;2023-04-19T11:54:52;64080.75;;;-145.45;100.00
59493;BME280;45497;43.996;22.876;2023-04-19T11:57:28;64080.75;;;-145.45;100.00
59493;BME280;45497;43.996;22.876;2023-04-19T12:00:08;64080.75;;;-145.45;100.00
59493;BME280;45497;43.996;22.876;2023-04-19T12:02:42;64080.75;;;-145.45;100.00
59493;BME280;45497;43.996;22.876;2023-04-19T12:05:14;64080.75;;;-145.45;100.00
59493;BME280;45497;43.996;22.876;2023-04-19T12:10:24;64080.75;;;-145.45;100.00
59493;BME280;45497;43.996;22.876;2023-04-19T12:12:50;64080.75;;;-145.45;100.00
59493;BME280;45497;43.996;22.876;2023-04-19T12:16:41;100673.91;;;19.22;42.87
59493;BME280;45497;43.996;22.876;2023-04-19T12:19:43;100662.78;;;19.60;43.88
59493;BME280;45497;43.996;22.876;2023-04-19T12:22:15;100674.19;;;19.74;42.90
59493;BME280;45497;43.996;22.876;2023-04-19T12:24:43;100651.56;;;19.63;42.21
59493;BME280;45497;43.996;22.876;2023-04-19T12:27:09;100650.97;;;19.49;43.79
59493;BME280;45497;43.996;22.876;2023-04-19T12:29:36;100661.31;;;19.76;43.14
59493;BME280;45497;43.996;22.876;2023-04-19T12:32:02;100652.81;;;19.79;42.68
59493;BME280;45497;43.996;22.876;2023-04-19T12:34:28;100658.84;;;19.63;41.70
59493;BME280;45497;43.996;22.876;2023-04-19T12:36:54;100656.63;;;19.72;42.05
59493;BME280;45497;43.996;22.876;2023-04-19T12:39:20;100635.97;;;19.96;42.84
59493;BME280;45497;43.996;22.876;2023-04-19T12:41:46;100629.50;;;19.97;42.04
59493;BME280;45497;43.996;22.876;2023-04-19T12:44:14;100643.44;;;20.05;41.55
59493;BME280;45497;43.996;22.876;2023-04-19T12:46:40;100629.97;;;20.05;41.46
59493;BME280;45497;43.996;22.876;2023-04-19T12:49:06;100636.53;;;20.21;41.25